createdAt,value
2018-09-06T00:00:37.968Z,12.60
2018-09-06T00:03:05.230Z,12.50
2018-09-06T00:05:32.717Z,12.40
2018-09-06T00:08:00.055Z,12.30
2018-09-06T00:10:27.449Z,12.20
2018-09-06T00:12:54.839Z,12.10
2018-09-06T00:15:22.116Z,12.20
2018-09-06T00:17:49.566Z,12.20
2018-09-06T00:20:16.959Z,12.10
2018-09-06T00:22:44.282Z,12.00
2018-09-06T00:25:11.763Z,12.10
2018-09-06T00:27:39.138Z,12.10
2018-09-06T00:30:06.656Z,12.10
2018-09-06T00:32:34.043Z,12.10
2018-09-06T00:35:01.575Z,12.10
2018-09-06T00:37:28.965Z,11.90
2018-09-06T00:39:56.434Z,11.80
2018-09-06T00:42:26.347Z,11.80
2018-09-06T00:44:55.771Z,11.80
2018-09-06T00:47:24.956Z,11.60
2018-09-06T00:49:54.471Z,11.50
2018-09-06T00:52:23.557Z,11.40
2018-09-06T00:54:50.888Z,11.40
2018-09-06T00:57:18.337Z,11.50
2018-09-06T00:59:45.722Z,11.60
2018-09-06T01:02:29.590Z,11.60
2018-09-06T01:05:00.698Z,11.70
2018-09-06T01:07:28.126Z,11.60
2018-09-06T01:09:55.522Z,11.70
2018-09-06T01:12:34.212Z,11.70
2018-09-06T01:15:01.762Z,11.70
2018-09-06T01:17:29.254Z,11.70
2018-09-06T01:19:56.685Z,11.70
2018-09-06T01:22:24.573Z,11.70
2018-09-06T01:24:51.906Z,11.60
2018-09-06T01:27:19.201Z,11.60
2018-09-06T01:29:46.651Z,11.60
2018-09-06T01:32:14.194Z,11.60
2018-09-06T01:34:41.590Z,11.50
2018-09-06T01:37:09.836Z,11.50
2018-09-06T01:39:38.222Z,11.50
2018-09-06T01:42:06.169Z,11.50
2018-09-06T01:44:33.545Z,11.50
2018-09-06T01:47:01.186Z,11.40
2018-09-06T01:49:28.569Z,11.30
2018-09-06T01:51:55.939Z,11.30
2018-09-06T01:54:23.221Z,11.30
2018-09-06T01:56:50.545Z,11.30
2018-09-06T01:59:18.048Z,11.30
2018-09-06T02:01:45.377Z,11.30
2018-09-06T02:04:12.718Z,11.30
2018-09-06T02:06:40.062Z,11.30
2018-09-06T02:09:08.013Z,11.20
2018-09-06T02:11:35.589Z,11.10
2018-09-06T02:14:03.130Z,11.20
2018-09-06T02:16:30.491Z,11.30
2018-09-06T02:18:57.878Z,11.40
2018-09-06T02:21:25.162Z,11.40
2018-09-06T02:23:52.481Z,11.40
2018-09-06T02:26:19.809Z,11.40
2018-09-06T02:28:47.191Z,11.40
2018-09-06T02:31:14.713Z,11.50
2018-09-06T02:33:42.054Z,11.40
2018-09-06T02:36:09.349Z,11.40
2018-09-06T02:38:36.727Z,11.40
2018-09-06T02:41:04.094Z,11.40
2018-09-06T02:43:41.036Z,11.30
2018-09-06T02:46:10.281Z,11.30
2018-09-06T02:48:47.596Z,11.20
2018-09-06T02:51:20.015Z,11.20
2018-09-06T02:53:53.628Z,11.20
2018-09-06T02:56:25.270Z,11.20
2018-09-06T02:58:56.402Z,11.20
2018-09-06T03:01:27.967Z,11.30
2018-09-06T03:04:00.553Z,11.40
2018-09-06T03:06:27.869Z,11.40
2018-09-06T03:08:55.327Z,11.40
2018-09-06T03:11:27.592Z,11.40
2018-09-06T03:13:57.452Z,11.50
2018-09-06T03:16:26.785Z,11.50
2018-09-06T03:18:56.754Z,11.50
2018-09-06T03:21:24.071Z,11.50
2018-09-06T03:23:51.433Z,11.50
2018-09-06T03:26:20.217Z,11.50
2018-09-06T03:28:49.143Z,11.50
2018-09-06T03:31:16.497Z,11.50
2018-09-06T03:33:44.325Z,11.40
2018-09-06T03:36:11.718Z,11.50
2018-09-06T03:38:39.037Z,11.50
2018-09-06T03:41:06.354Z,11.50
2018-09-06T03:43:33.729Z,11.50
2018-09-06T03:46:01.785Z,11.50
2018-09-06T03:48:29.285Z,11.50
2018-09-06T03:50:56.902Z,11.50
2018-09-06T03:53:24.201Z,11.50
2018-09-06T03:55:51.480Z,11.40
2018-09-06T03:58:19.938Z,11.40
2018-09-06T04:00:47.543Z,11.40
2018-09-06T04:03:15.335Z,11.50
2018-09-06T04:05:42.651Z,11.50
2018-09-06T04:08:10.104Z,11.50
2018-09-06T04:10:37.461Z,11.50
2018-09-06T04:13:04.798Z,11.40
2018-09-06T04:15:32.077Z,11.50
2018-09-06T04:17:59.430Z,11.50
2018-09-06T04:20:26.856Z,11.50
2018-09-06T04:22:54.148Z,11.60
2018-09-06T04:25:21.464Z,11.60
2018-09-06T04:27:49.164Z,11.60
2018-09-06T04:30:16.590Z,11.70
2018-09-06T04:32:44.106Z,11.70
2018-09-06T04:35:11.438Z,11.80
2018-09-06T04:37:38.961Z,11.90
2018-09-06T04:40:06.291Z,12.00
2018-09-06T04:42:33.593Z,12.00
2018-09-06T04:45:00.975Z,12.10
2018-09-06T04:47:28.389Z,12.10
2018-09-06T04:49:55.669Z,12.10
2018-09-06T04:52:23.279Z,12.10
2018-09-06T04:54:50.712Z,12.10
2018-09-06T04:57:18.142Z,12.20
2018-09-06T04:59:45.538Z,12.30
2018-09-06T05:02:12.946Z,12.20
2018-09-06T05:04:40.325Z,12.20
2018-09-06T05:07:07.665Z,12.10
2018-09-06T05:09:35.037Z,12.20
2018-09-06T05:12:02.378Z,12.20
2018-09-06T05:14:29.749Z,12.10
2018-09-06T05:16:57.095Z,12.10
2018-09-06T05:19:24.463Z,12.20
2018-09-06T05:21:51.864Z,12.40
2018-09-06T05:24:19.257Z,12.60
2018-09-06T05:26:46.646Z,12.70
2018-09-06T05:29:13.970Z,12.90
2018-09-06T05:31:41.449Z,12.90
2018-09-06T05:34:08.902Z,13.00
2018-09-06T05:36:36.298Z,13.10
2018-09-06T05:39:03.872Z,13.20
2018-09-06T05:41:31.186Z,13.20
2018-09-06T05:43:58.541Z,13.20
2018-09-06T05:46:26.023Z,13.40
2018-09-06T05:48:53.353Z,13.40
2018-09-06T05:51:20.840Z,13.40
2018-09-06T05:53:48.169Z,13.50
2018-09-06T05:56:15.551Z,13.60
2018-09-06T05:58:42.953Z,13.60
2018-09-06T06:01:10.405Z,13.70
2018-09-06T06:03:37.698Z,13.70
2018-09-06T06:06:05.045Z,13.80
2018-09-06T06:08:38.070Z,13.90
2018-09-06T06:11:05.710Z,14.10
2018-09-06T06:13:33.161Z,14.10
2018-09-06T06:16:00.564Z,14.10
2018-09-06T06:18:27.861Z,14.10
2018-09-06T06:20:55.158Z,14.20
2018-09-06T06:23:22.479Z,14.20
2018-09-06T06:25:49.998Z,14.50
2018-09-06T06:28:17.302Z,14.60
2018-09-06T06:30:44.636Z,14.70
2018-09-06T06:33:11.981Z,14.90
2018-09-06T06:35:39.453Z,15.00
2018-09-06T06:38:06.738Z,15.10
2018-09-06T06:40:34.061Z,15.20
2018-09-06T06:43:01.342Z,15.20
2018-09-06T06:45:28.673Z,15.20
2018-09-06T06:47:56.051Z,15.40
2018-09-06T06:50:23.510Z,15.50
2018-09-06T06:52:50.841Z,15.50
2018-09-06T06:55:18.499Z,15.50
2018-09-06T06:57:45.781Z,15.40
2018-09-06T07:00:13.263Z,15.40
2018-09-06T07:02:40.592Z,15.80
2018-09-06T07:05:07.957Z,16.30
2018-09-06T07:07:35.302Z,16.80
2018-09-06T07:10:02.765Z,17.00
2018-09-06T07:12:30.215Z,17.10
2018-09-06T07:14:57.688Z,17.20
2018-09-06T07:17:25.024Z,17.30
2018-09-06T07:19:52.406Z,17.40
2018-09-06T07:22:19.838Z,17.50
2018-09-06T07:24:47.118Z,17.10
2018-09-06T07:27:14.440Z,17.10
2018-09-06T07:29:41.847Z,16.70
2018-09-06T07:32:09.186Z,16.60
2018-09-06T07:34:36.542Z,16.50
2018-09-06T07:37:04.006Z,16.40
2018-09-06T07:39:31.349Z,16.40
2018-09-06T07:41:58.695Z,16.70
2018-09-06T07:44:26.298Z,17.00
2018-09-06T07:46:53.712Z,17.30
2018-09-06T07:49:20.981Z,17.50
2018-09-06T07:51:48.318Z,18.00
2018-09-06T07:54:15.693Z,18.20
2018-09-06T07:56:43.026Z,18.10
2018-09-06T07:59:10.404Z,18.10
2018-09-06T08:01:37.824Z,18.20
2018-09-06T08:04:05.317Z,18.20
2018-09-06T08:06:32.870Z,18.30
2018-09-06T08:09:00.217Z,18.40
2018-09-06T08:11:27.488Z,18.30
2018-09-06T08:13:54.842Z,18.40
2018-09-06T08:16:22.289Z,18.50
2018-09-06T08:18:50.014Z,18.60
2018-09-06T08:21:17.341Z,18.50
2018-09-06T08:23:44.694Z,18.60
2018-09-06T08:26:12.030Z,18.50
2018-09-06T08:28:39.397Z,18.60
2018-09-06T08:31:06.901Z,18.80
2018-09-06T08:33:34.421Z,18.90
2018-09-06T08:36:01.750Z,18.90
2018-09-06T08:38:29.142Z,19.00
2018-09-06T08:40:56.468Z,19.00
2018-09-06T08:43:23.837Z,19.20
2018-09-06T08:45:51.285Z,19.20
2018-09-06T08:48:18.769Z,19.50
2018-09-06T08:50:46.098Z,19.80
2018-09-06T08:53:13.580Z,19.90
2018-09-06T08:55:40.972Z,19.90
2018-09-06T08:58:08.291Z,20.00
2018-09-06T09:00:39.285Z,20.10
2018-09-06T09:03:06.688Z,20.00
2018-09-06T09:05:34.051Z,20.20
2018-09-06T09:08:01.378Z,20.40
2018-09-06T09:10:28.655Z,20.60
2018-09-06T09:12:55.995Z,20.70
2018-09-06T09:15:23.376Z,20.80
2018-09-06T09:17:50.697Z,20.80
2018-09-06T09:20:18.146Z,20.90
2018-09-06T09:22:45.409Z,21.10
2018-09-06T09:25:12.697Z,21.30
2018-09-06T09:27:40.333Z,21.40
2018-09-06T09:30:07.714Z,21.70
2018-09-06T09:32:35.159Z,21.70
2018-09-06T09:35:02.625Z,21.80
2018-09-06T09:37:30.216Z,22.00
2018-09-06T09:39:57.569Z,22.10
2018-09-06T09:42:24.884Z,22.10
2018-09-06T09:44:52.286Z,22.30
2018-09-06T09:49:47.702Z,22.20
2018-09-06T09:52:15.018Z,22.10
2018-09-06T09:54:42.626Z,22.10
2018-09-06T09:57:10.169Z,22.10
2018-09-06T09:59:37.420Z,22.10
2018-09-06T10:02:10.298Z,22.20
2018-09-06T10:04:42.992Z,22.20
2018-09-06T10:07:15.762Z,22.40
2018-09-06T10:09:43.318Z,22.60
2018-09-06T10:12:10.762Z,22.80
2018-09-06T10:14:38.042Z,22.80
2018-09-06T10:17:05.373Z,22.90
2018-09-06T10:19:32.849Z,23.10
2018-09-06T10:22:00.309Z,23.00
2018-09-06T10:24:27.773Z,22.90
2018-09-06T10:26:55.197Z,22.90
2018-09-06T10:29:22.591Z,23.10
2018-09-06T10:31:50.046Z,23.10
2018-09-06T10:34:17.480Z,23.10
2018-09-06T10:36:44.865Z,23.20
2018-09-06T10:39:12.237Z,23.30
2018-09-06T10:41:39.690Z,23.20
2018-09-06T10:44:07.233Z,23.30
2018-09-06T10:46:34.724Z,23.40
2018-09-06T10:49:02.034Z,23.50
2018-09-06T10:51:29.334Z,23.40
2018-09-06T10:53:56.751Z,23.50
2018-09-06T10:56:24.206Z,23.50
2018-09-06T10:58:51.466Z,23.50
2018-09-06T11:01:21.225Z,23.60
2018-09-06T11:03:48.937Z,23.70
2018-09-06T11:06:16.314Z,23.70
2018-09-06T11:08:43.652Z,23.60
2018-09-06T11:11:11.031Z,23.30
2018-09-06T11:13:38.469Z,23.40
2018-09-06T11:16:05.843Z,23.40
2018-09-06T11:18:33.193Z,23.50
2018-09-06T11:21:00.665Z,23.60
2018-09-06T11:23:28.014Z,23.80
2018-09-06T11:25:55.367Z,23.70
2018-09-06T11:28:22.951Z,23.80
2018-09-06T11:30:50.270Z,23.80
2018-09-06T11:33:17.794Z,23.80
2018-09-06T11:35:45.303Z,24.00
2018-09-06T11:38:12.640Z,23.60
2018-09-06T11:40:39.921Z,23.70
2018-09-06T11:43:07.249Z,23.80
2018-09-06T11:45:34.634Z,24.10
2018-09-06T11:48:02.067Z,24.10
2018-09-06T11:50:29.402Z,24.00
2018-09-06T11:52:56.714Z,23.90
2018-09-06T11:55:24.033Z,23.80
2018-09-06T11:57:51.338Z,23.70
2018-09-06T12:00:18.833Z,23.80
2018-09-06T12:02:46.234Z,23.90
2018-09-06T12:05:13.561Z,24.00
2018-09-06T12:07:40.940Z,24.10
2018-09-06T12:10:08.482Z,24.10
2018-09-06T12:12:35.753Z,24.20
2018-09-06T12:15:03.192Z,24.40
2018-09-06T12:17:30.469Z,24.40
2018-09-06T12:19:58.714Z,24.40
2018-09-06T12:22:27.026Z,24.60
2018-09-06T12:24:55.267Z,24.70
2018-09-06T12:27:23.270Z,24.70
2018-09-06T12:29:51.462Z,24.60
2018-09-06T12:32:19.729Z,24.60
2018-09-06T12:34:47.910Z,24.60
2018-09-06T12:37:16.171Z,24.50
2018-09-06T12:39:45.223Z,24.30
2018-09-06T12:42:13.447Z,24.40
2018-09-06T12:44:42.179Z,24.60
2018-09-06T12:47:10.430Z,24.80
2018-09-06T12:49:38.823Z,24.80
2018-09-06T12:52:06.869Z,24.90
2018-09-06T12:54:35.360Z,24.60
2018-09-06T12:57:03.623Z,24.50
2018-09-06T12:59:31.734Z,24.50
2018-09-06T13:01:59.958Z,24.40
2018-09-06T13:04:27.955Z,24.40
2018-09-06T13:06:56.246Z,24.50
2018-09-06T13:09:24.324Z,24.60
2018-09-06T13:11:52.359Z,24.50
2018-09-06T13:14:20.387Z,24.40
2018-09-06T13:16:48.506Z,24.40
2018-09-06T13:19:16.594Z,24.50
2018-09-06T13:21:44.651Z,24.60
2018-09-06T13:24:12.755Z,24.50
2018-09-06T13:26:40.790Z,24.60
2018-09-06T13:29:08.790Z,24.60
2018-09-06T13:31:36.919Z,24.50
2018-09-06T13:34:04.968Z,24.50
2018-09-06T13:36:33.006Z,24.60
2018-09-06T13:39:01.046Z,24.60
2018-09-06T13:41:29.667Z,24.50
2018-09-06T13:43:57.739Z,24.50
2018-09-06T13:46:25.816Z,24.50
2018-09-06T13:48:53.863Z,24.70
2018-09-06T13:51:22.065Z,24.70
2018-09-06T13:53:50.115Z,24.70
2018-09-06T13:56:18.539Z,24.70
2018-09-06T13:58:46.575Z,24.70
2018-09-06T14:01:14.691Z,24.90
2018-09-06T14:03:42.715Z,24.90
2018-09-06T14:06:11.017Z,24.90
2018-09-06T14:08:39.130Z,24.90
2018-09-06T14:11:07.160Z,24.90
2018-09-06T14:13:35.251Z,24.90
2018-09-06T14:16:03.302Z,24.80
2018-09-06T14:18:31.447Z,24.80
2018-09-06T14:20:59.618Z,24.90
2018-09-06T14:23:27.744Z,24.80
2018-09-06T14:25:55.803Z,24.90
2018-09-06T14:28:23.853Z,25.00
2018-09-06T14:30:51.976Z,25.00
2018-09-06T14:33:20.202Z,25.00
2018-09-06T14:35:48.194Z,25.00
2018-09-06T14:38:16.258Z,25.00
2018-09-06T14:40:44.465Z,24.90
2018-09-06T14:43:12.523Z,24.90
2018-09-06T14:45:40.579Z,24.80
2018-09-06T14:48:08.787Z,24.80
2018-09-06T14:50:36.832Z,24.80
2018-09-06T14:53:04.922Z,24.80
2018-09-06T14:55:33.395Z,24.80
2018-09-06T14:58:01.450Z,24.90
2018-09-06T15:00:29.638Z,25.00
2018-09-06T15:02:57.706Z,25.10
2018-09-06T15:05:25.774Z,25.20
2018-09-06T15:07:53.893Z,25.10
2018-09-06T15:10:21.926Z,25.00
2018-09-06T15:12:50.018Z,25.10
2018-09-06T15:15:18.443Z,25.00
2018-09-06T15:17:46.567Z,25.00
2018-09-06T15:20:14.738Z,25.00
2018-09-06T15:22:42.819Z,25.00
2018-09-06T15:25:10.874Z,24.90
2018-09-06T15:27:39.123Z,24.90
2018-09-06T15:30:07.247Z,24.80
2018-09-06T15:32:35.403Z,24.60
2018-09-06T15:35:03.592Z,24.70
2018-09-06T15:37:31.700Z,24.70
2018-09-06T15:40:00.010Z,24.60
2018-09-06T15:42:27.994Z,24.60
2018-09-06T15:44:56.088Z,24.50
2018-09-06T15:47:24.270Z,24.60
2018-09-06T15:49:52.333Z,24.60
2018-09-06T15:52:20.522Z,24.40
2018-09-06T15:54:48.593Z,24.40
2018-09-06T15:57:16.755Z,24.40
2018-09-06T15:59:44.838Z,24.40
2018-09-06T16:02:12.919Z,24.40
2018-09-06T16:04:41.877Z,24.30
2018-09-06T16:07:19.756Z,24.20
2018-09-06T16:09:51.357Z,24.20
2018-09-06T16:12:22.796Z,24.10
2018-09-06T16:14:58.401Z,24.10
2018-09-06T16:17:29.653Z,24.00
2018-09-06T16:20:01.167Z,23.90
2018-09-06T16:22:32.302Z,23.90
2018-09-06T16:25:03.673Z,23.70
2018-09-06T16:27:34.420Z,23.40
2018-09-06T16:30:04.403Z,23.20
2018-09-06T16:32:31.755Z,23.00
2018-09-06T16:34:59.133Z,22.80
2018-09-06T16:37:26.485Z,22.60
2018-09-06T16:39:53.814Z,22.50
2018-09-06T16:42:21.835Z,22.40
2018-09-06T16:44:49.991Z,22.40
2018-09-06T16:47:18.086Z,22.40
2018-09-06T16:49:45.413Z,22.30
2018-09-06T16:52:12.879Z,22.20
2018-09-06T16:54:40.222Z,22.20
2018-09-06T16:57:07.701Z,22.00
2018-09-06T16:59:35.058Z,21.90
2018-09-06T17:02:02.813Z,21.80
2018-09-06T17:04:30.353Z,21.80
2018-09-06T17:06:57.974Z,21.70
2018-09-06T17:09:25.593Z,21.60
2018-09-06T17:11:52.962Z,21.60
2018-09-06T17:14:20.384Z,21.40
2018-09-06T17:16:47.642Z,21.30
2018-09-06T17:19:15.008Z,21.20
2018-09-06T17:21:42.684Z,21.20
2018-09-06T17:24:10.229Z,21.30
2018-09-06T17:26:38.217Z,21.10
2018-09-06T17:29:05.545Z,20.70
2018-09-06T17:31:32.927Z,20.30
2018-09-06T17:34:00.285Z,20.00
2018-09-06T17:36:27.623Z,19.70
2018-09-06T17:38:56.069Z,19.40
2018-09-06T17:41:23.672Z,19.20
2018-09-06T17:43:51.578Z,19.00
2018-09-06T17:46:20.794Z,18.90
2018-09-06T17:48:48.470Z,18.70
2018-09-06T17:51:17.266Z,18.50
2018-09-06T17:53:46.441Z,18.40
2018-09-06T17:56:13.962Z,18.20
2018-09-06T17:58:42.300Z,18.10
2018-09-06T18:01:43.289Z,18.00
2018-09-06T18:04:10.743Z,17.90
2018-09-06T18:06:38.154Z,17.70
2018-09-06T18:09:07.313Z,17.60
2018-09-06T18:11:34.658Z,17.60
2018-09-06T18:14:02.009Z,17.50
2018-09-06T18:16:29.374Z,17.60
2018-09-06T18:18:56.821Z,17.50
2018-09-06T18:21:25.026Z,17.50
2018-09-06T18:23:52.350Z,17.30
2018-09-06T18:26:19.738Z,17.20
2018-09-06T18:28:47.058Z,17.10
2018-09-06T18:31:14.645Z,17.00
2018-09-06T18:33:41.975Z,17.00
2018-09-06T18:36:09.569Z,17.00
2018-09-06T18:38:36.895Z,16.80
2018-09-06T18:41:04.292Z,16.70
2018-09-06T18:43:31.649Z,16.50
2018-09-06T18:45:58.985Z,16.40
2018-09-06T18:48:26.318Z,16.30
2018-09-06T18:50:53.697Z,16.20
2018-09-06T18:53:21.047Z,16.20
2018-09-06T18:55:48.412Z,16.10
2018-09-06T18:58:15.761Z,16.10
2018-09-06T19:00:43.536Z,16.00
2018-09-06T19:03:10.921Z,16.00
2018-09-06T19:05:38.257Z,16.00
2018-09-06T19:08:05.573Z,16.00
2018-09-06T19:10:32.849Z,15.90
2018-09-06T19:13:00.182Z,15.80
2018-09-06T19:15:27.566Z,15.70
2018-09-06T19:17:54.981Z,15.70
2018-09-06T19:20:22.501Z,15.70
2018-09-06T19:22:50.134Z,15.80
2018-09-06T19:25:17.612Z,15.90
2018-09-06T19:27:44.954Z,16.10
2018-09-06T19:30:12.436Z,16.20
2018-09-06T19:32:39.775Z,16.30
2018-09-06T19:35:07.124Z,16.50
2018-09-06T19:37:34.490Z,16.60
2018-09-06T19:40:01.830Z,16.60
2018-09-06T19:42:29.197Z,16.70
2018-09-06T19:44:56.680Z,16.70
2018-09-06T19:47:23.996Z,16.70
2018-09-06T19:49:51.581Z,16.80
2018-09-06T19:52:18.950Z,16.80
2018-09-06T19:54:46.298Z,16.90
2018-09-06T19:57:13.651Z,16.90
2018-09-06T19:59:41.504Z,16.90
2018-09-06T20:02:08.875Z,17.00
2018-09-06T20:04:36.314Z,17.00
2018-09-06T20:07:03.903Z,17.10
2018-09-06T20:09:31.222Z,17.20
2018-09-06T20:11:58.609Z,17.20
2018-09-06T20:14:25.962Z,17.40
2018-09-06T20:16:53.552Z,17.50
2018-09-06T20:19:20.759Z,17.50
2018-09-06T20:21:48.248Z,17.50
2018-09-06T20:24:15.589Z,17.60
2018-09-06T20:26:42.933Z,17.60
2018-09-06T20:29:10.309Z,17.60
2018-09-06T20:31:37.685Z,17.60
2018-09-06T20:34:05.039Z,17.60
2018-09-06T20:36:32.370Z,17.70
2018-09-06T20:38:59.761Z,17.70
2018-09-06T20:41:27.074Z,17.70
2018-09-06T20:43:54.460Z,17.60
2018-09-06T20:46:21.785Z,17.50
2018-09-06T20:48:49.516Z,17.40
2018-09-06T20:51:16.822Z,17.40
2018-09-06T20:53:44.154Z,17.30
2018-09-06T20:56:11.536Z,17.30
2018-09-06T20:58:39.065Z,17.20
2018-09-06T21:01:06.345Z,17.10
2018-09-06T21:03:33.685Z,17.10
2018-09-06T21:06:01.054Z,17.00
2018-09-06T21:08:28.635Z,17.00
2018-09-06T21:10:55.977Z,17.00
2018-09-06T21:13:23.318Z,17.00
2018-09-06T21:15:50.690Z,16.90
2018-09-06T21:18:18.064Z,16.90
2018-09-06T21:20:45.481Z,16.90
2018-09-06T21:23:12.758Z,16.80
2018-09-06T21:25:40.093Z,16.80
2018-09-06T21:28:07.561Z,16.80
2018-09-06T21:30:34.905Z,16.70
2018-09-06T21:33:02.185Z,16.70
2018-09-06T21:35:29.543Z,16.60
2018-09-06T21:37:56.960Z,16.60
2018-09-06T21:40:24.351Z,16.50
2018-09-06T21:42:51.690Z,16.50
2018-09-06T21:45:19.065Z,16.50
2018-09-06T21:47:46.402Z,16.40
2018-09-06T21:50:13.781Z,16.40
2018-09-06T21:52:41.140Z,16.40
2018-09-06T21:55:08.467Z,16.30
2018-09-06T21:57:35.740Z,16.30
2018-09-06T22:00:03.186Z,16.30
2018-09-06T22:02:36.138Z,16.30
2018-09-06T22:05:03.419Z,16.30
2018-09-06T22:07:30.821Z,16.30
2018-09-06T22:09:58.236Z,16.20
2018-09-06T22:12:25.497Z,16.20
2018-09-06T22:14:52.868Z,16.20
2018-09-06T22:17:20.330Z,16.10
2018-09-06T22:19:47.799Z,16.10
2018-09-06T22:22:15.330Z,16.20
2018-09-06T22:24:43.130Z,16.20
2018-09-06T22:27:10.555Z,16.20
2018-09-06T22:29:37.954Z,16.20
2018-09-06T22:32:05.619Z,16.10
2018-09-06T22:34:33.029Z,16.10
2018-09-06T22:37:00.410Z,16.00
2018-09-06T22:39:27.842Z,16.00
2018-09-06T22:41:55.221Z,16.00
2018-09-06T22:44:22.797Z,16.00
2018-09-06T22:46:50.150Z,16.00
2018-09-06T22:49:17.513Z,16.00
2018-09-06T22:51:44.833Z,15.90
2018-09-06T22:54:12.124Z,15.90
2018-09-06T22:56:39.543Z,15.90
2018-09-06T22:59:06.933Z,16.00
2018-09-06T23:01:34.258Z,16.00
2018-09-06T23:04:01.638Z,16.10
2018-09-06T23:06:28.988Z,16.10
2018-09-06T23:08:56.353Z,16.10
2018-09-06T23:11:23.785Z,16.10
2018-09-06T23:13:51.032Z,16.20
2018-09-06T23:16:18.425Z,16.20
2018-09-06T23:18:45.754Z,16.20
2018-09-06T23:21:13.159Z,16.10
2018-09-06T23:23:40.465Z,16.10
2018-09-06T23:26:07.968Z,16.10
2018-09-06T23:28:35.286Z,16.00
2018-09-06T23:31:02.633Z,15.90
2018-09-06T23:33:29.911Z,15.90
2018-09-06T23:35:57.349Z,15.80
2018-09-06T23:38:24.643Z,15.80
2018-09-06T23:40:56.185Z,15.70
2018-09-06T23:43:24.656Z,15.70
2018-09-06T23:45:53.047Z,15.60
2018-09-06T23:48:21.809Z,15.60
2018-09-06T23:50:49.403Z,15.60
2018-09-06T23:53:16.737Z,15.60
2018-09-06T23:55:44.130Z,15.50
2018-09-06T23:58:11.449Z,15.50
